Overview Statistics Trail Chart Weather Telemetry Raw packets
 

This is the latest recevied weather packets stored in our database for station/object KI5RAB. If no packets are shown the sender has not sent any weather packets the latest 10 day(s).

<< 1 2 3 4 5 >>
Time Temp. Humidity Pressure Rain* Wind** Luminosity Snow
1788664789 30° C 63% 1016.3 hPa 0 mm - 0 W/m² -
1788664484 30.56° C 62% 1016 hPa 0 mm - 0 W/m² -
1788664180 30.56° C 61% 1016 hPa 0 mm - 0 W/m² -
1788663874 30.56° C 61% 1015.9 hPa 0 mm - 0 W/m² -
1788663574 31.11° C 60% 1016.1 hPa 0 mm - 0 W/m² -
1788663269 31.11° C 60% 1015.7 hPa 0 mm - 0 W/m² -
1788662967 31.11° C 59% 1015.6 hPa 0 mm - 0 W/m² -
1788662667 31.11° C 58% 1015.5 hPa 0 mm - 0 W/m² -
1788662362 31.67° C 57% 1015.4 hPa 0 mm - 0 W/m² -
1788662059 31.67° C 56% 1015.2 hPa 0 mm - 0 W/m² -
1788661758 31.67° C 55% 1015 hPa 0 mm - 0 W/m² -
1788661454 32.22° C 53% 1014.8 hPa 0 mm - 0 W/m² -
1788661149 32.22° C 51% 1014.5 hPa 0 mm - 0 W/m² -
1788660849 32.22° C 50% 1014.3 hPa 0 mm - 0 W/m² -
1788660543 32.22° C 50% 1014.1 hPa 0 mm - 0 W/m² -
1788660243 32.78° C 49% 1014.2 hPa 0 mm - 0 W/m² -
1788659937 32.78° C 48% 1014.2 hPa 0 mm - 0 W/m² -
1788659637 32.78° C 49% 1014 hPa 0 mm - 0 W/m² -
1788659331 32.78° C 49% 1014.2 hPa 0 mm - 0 W/m² -
1788659030 32.22° C 52% 1014.2 hPa 0 mm - 0 W/m² -
1788658727 32.22° C 51% 1013.8 hPa 0 mm - 0 W/m² -
1788658422 32.78° C 50% 1013.9 hPa 0 mm - 0 W/m² -
1788658117 32.78° C 49% 1013.7 hPa 0 mm - 0 W/m² -
1788657813 32.22° C 50% 1013.9 hPa 0 mm - 0 W/m² -
1788657512 32.22° C 52% 1013.7 hPa 0 mm - 0 W/m² -

* Rain latest hour (hover to see other rain measurements)
** Current wind speed in m/s (hover to see current wind gust speed)